sensor_id;sensor_type;location;lat;lon;timestamp;temperature;humidity
22145;DHT22;11238;48.730;11.566;2023-07-29T00:00:40;18.30;99.90
22145;DHT22;11238;48.730;11.566;2023-07-29T00:03:05;18.20;99.90
22145;DHT22;11238;48.730;11.566;2023-07-29T00:05:31;18.20;99.90
22145;DHT22;11238;48.730;11.566;2023-07-29T00:07:57;18.10;99.90
22145;DHT22;11238;48.730;11.566;2023-07-29T00:10:23;18.20;99.90
22145;DHT22;11238;48.730;11.566;2023-07-29T00:12:49;18.20;99.90
22145;DHT22;11238;48.730;11.566;2023-07-29T00:15:15;18.20;99.90
22145;DHT22;11238;48.730;11.566;2023-07-29T00:17:41;18.20;99.90
22145;DHT22;11238;48.730;11.566;2023-07-29T00:20:07;18.20;99.90
22145;DHT22;11238;48.730;11.566;2023-07-29T00:22:33;18.20;99.90
22145;DHT22;11238;48.730;11.566;2023-07-29T00:24:59;18.20;99.90
22145;DHT22;11238;48.730;11.566;2023-07-29T00:27:47;18.20;99.90
22145;DHT22;11238;48.730;11.566;2023-07-29T00:30:13;18.20;99.90
22145;DHT22;11238;48.730;11.566;2023-07-29T00:32:38;18.20;99.90
22145;DHT22;11238;48.730;11.566;2023-07-29T00:35:05;18.20;99.90
22145;DHT22;11238;48.730;11.566;2023-07-29T00:37:31;18.20;99.90
22145;DHT22;11238;48.730;11.566;2023-07-29T00:40:00;18.20;99.90
22145;DHT22;11238;48.730;11.566;2023-07-29T00:42:26;18.20;99.90
22145;DHT22;11238;48.730;11.566;2023-07-29T00:44:51;18.20;99.90
22145;DHT22;11238;48.730;11.566;2023-07-29T00:47:19;18.10;99.90
22145;DHT22;11238;48.730;11.566;2023-07-29T00:49:48;18.10;99.90
22145;DHT22;11238;48.730;11.566;2023-07-29T00:52:13;18.10;99.90
22145;DHT22;11238;48.730;11.566;2023-07-29T00:54:40;18.10;99.90
22145;DHT22;11238;48.730;11.566;2023-07-29T00:57:08;18.10;99.90
22145;DHT22;11238;48.730;11.566;2023-07-29T00:59:36;18.10;99.90
22145;DHT22;11238;48.730;11.566;2023-07-29T01:02:02;18.10;99.90
22145;DHT22;11238;48.730;11.566;2023-07-29T01:04:32;18.10;99.90
22145;DHT22;11238;48.730;11.566;2023-07-29T01:08:04;18.10;99.90
22145;DHT22;11238;48.730;11.566;2023-07-29T01:13:00;18.00;99.90
22145;DHT22;11238;48.730;11.566;2023-07-29T01:15:49;17.80;99.90
22145;DHT22;11238;48.730;11.566;2023-07-29T01:18:37;17.90;99.90
22145;DHT22;11238;48.730;11.566;2023-07-29T01:21:07;17.90;99.90
22145;DHT22;11238;48.730;11.566;2023-07-29T01:23:34;17.60;99.90
22145;DHT22;11238;48.730;11.566;2023-07-29T01:26:02;17.50;99.90
22145;DHT22;11238;48.730;11.566;2023-07-29T01:28:29;17.40;99.90
22145;DHT22;11238;48.730;11.566;2023-07-29T01:31:16;17.50;99.90
22145;DHT22;11238;48.730;11.566;2023-07-29T01:33:52;17.50;99.90
22145;DHT22;11238;48.730;11.566;2023-07-29T01:36:22;17.60;99.90
22145;DHT22;11238;48.730;11.566;2023-07-29T01:38:52;17.50;99.90
22145;DHT22;11238;48.730;11.566;2023-07-29T01:41:20;17.60;99.90
22145;DHT22;11238;48.730;11.566;2023-07-29T01:43:46;17.50;99.90
22145;DHT22;11238;48.730;11.566;2023-07-29T01:46:14;17.50;99.90
22145;DHT22;11238;48.730;11.566;2023-07-29T01:48:40;17.50;99.90
22145;DHT22;11238;48.730;11.566;2023-07-29T01:51:06;17.50;99.90
22145;DHT22;11238;48.730;11.566;2023-07-29T01:53:32;17.40;99.90
22145;DHT22;11238;48.730;11.566;2023-07-29T01:55:59;17.40;99.90
22145;DHT22;11238;48.730;11.566;2023-07-29T01:58:25;17.40;99.90
22145;DHT22;11238;48.730;11.566;2023-07-29T02:00:51;17.40;99.90
22145;DHT22;11238;48.730;11.566;2023-07-29T02:03:17;17.30;99.90
22145;DHT22;11238;48.730;11.566;2023-07-29T02:05:43;17.30;99.90
22145;DHT22;11238;48.730;11.566;2023-07-29T02:08:10;17.30;99.90
22145;DHT22;11238;48.730;11.566;2023-07-29T02:10:36;17.30;99.90
22145;DHT22;11238;48.730;11.566;2023-07-29T02:13:03;17.20;99.90
22145;DHT22;11238;48.730;11.566;2023-07-29T02:15:29;17.20;99.90
22145;DHT22;11238;48.730;11.566;2023-07-29T02:17:56;17.20;99.90
22145;DHT22;11238;48.730;11.566;2023-07-29T02:20:21;17.20;99.90
22145;DHT22;11238;48.730;11.566;2023-07-29T02:22:50;17.10;99.90
22145;DHT22;11238;48.730;11.566;2023-07-29T02:25:15;17.20;99.90
22145;DHT22;11238;48.730;11.566;2023-07-29T02:27:41;17.10;99.90
22145;DHT22;11238;48.730;11.566;2023-07-29T02:30:07;17.00;99.90
22145;DHT22;11238;48.730;11.566;2023-07-29T02:32:35;17.10;99.90
22145;DHT22;11238;48.730;11.566;2023-07-29T02:35:01;17.00;99.90
22145;DHT22;11238;48.730;11.566;2023-07-29T02:37:27;16.90;99.90
22145;DHT22;11238;48.730;11.566;2023-07-29T02:39:53;16.90;99.90
22145;DHT22;11238;48.730;11.566;2023-07-29T02:42:19;16.70;99.90
22145;DHT22;11238;48.730;11.566;2023-07-29T02:44:44;16.80;99.90
22145;DHT22;11238;48.730;11.566;2023-07-29T02:47:11;16.80;99.90
22145;DHT22;11238;48.730;11.566;2023-07-29T02:49:36;16.70;99.90
22145;DHT22;11238;48.730;11.566;2023-07-29T02:52:02;16.70;99.90
22145;DHT22;11238;48.730;11.566;2023-07-29T02:54:29;16.70;99.90
22145;DHT22;11238;48.730;11.566;2023-07-29T02:56:55;16.60;99.90
22145;DHT22;11238;48.730;11.566;2023-07-29T02:59:22;16.70;99.90
22145;DHT22;11238;48.730;11.566;2023-07-29T03:01:48;16.70;99.90
22145;DHT22;11238;48.730;11.566;2023-07-29T03:04:14;16.70;99.90
22145;DHT22;11238;48.730;11.566;2023-07-29T03:06:40;16.70;99.90
22145;DHT22;11238;48.730;11.566;2023-07-29T03:09:06;16.70;99.90
22145;DHT22;11238;48.730;11.566;2023-07-29T03:11:32;16.70;99.90
22145;DHT22;11238;48.730;11.566;2023-07-29T03:13:58;16.70;99.90
22145;DHT22;11238;48.730;11.566;2023-07-29T03:16:24;16.70;99.90
22145;DHT22;11238;48.730;11.566;2023-07-29T03:18:53;16.60;99.90
22145;DHT22;11238;48.730;11.566;2023-07-29T03:21:19;16.60;99.90
22145;DHT22;11238;48.730;11.566;2023-07-29T03:23:45;16.60;99.90
22145;DHT22;11238;48.730;11.566;2023-07-29T03:26:11;16.60;99.90
22145;DHT22;11238;48.730;11.566;2023-07-29T03:28:40;16.60;99.90
22145;DHT22;11238;48.730;11.566;2023-07-29T03:31:07;16.60;99.90
22145;DHT22;11238;48.730;11.566;2023-07-29T03:33:33;16.60;99.90
22145;DHT22;11238;48.730;11.566;2023-07-29T03:35:59;16.60;99.90
22145;DHT22;11238;48.730;11.566;2023-07-29T03:38:25;16.60;99.90
22145;DHT22;11238;48.730;11.566;2023-07-29T03:40:51;16.60;99.90
22145;DHT22;11238;48.730;11.566;2023-07-29T03:43:17;16.70;99.90
22145;DHT22;11238;48.730;11.566;2023-07-29T03:45:43;16.70;99.90
22145;DHT22;11238;48.730;11.566;2023-07-29T03:48:09;16.70;99.90
22145;DHT22;11238;48.730;11.566;2023-07-29T03:50:36;16.70;99.90
22145;DHT22;11238;48.730;11.566;2023-07-29T03:53:02;16.80;99.90
22145;DHT22;11238;48.730;11.566;2023-07-29T03:55:29;16.80;99.90
22145;DHT22;11238;48.730;11.566;2023-07-29T03:57:56;16.80;99.90
22145;DHT22;11238;48.730;11.566;2023-07-29T04:00:23;16.80;99.90
22145;DHT22;11238;48.730;11.566;2023-07-29T04:02:49;16.80;99.90
22145;DHT22;11238;48.730;11.566;2023-07-29T04:05:15;16.80;99.90
22145;DHT22;11238;48.730;11.566;2023-07-29T04:07:41;16.90;99.90
22145;DHT22;11238;48.730;11.566;2023-07-29T04:10:07;16.90;99.90
22145;DHT22;11238;48.730;11.566;2023-07-29T04:12:33;16.90;99.90
22145;DHT22;11238;48.730;11.566;2023-07-29T04:14:59;16.90;99.90
22145;DHT22;11238;48.730;11.566;2023-07-29T04:17:25;16.90;99.90
22145;DHT22;11238;48.730;11.566;2023-07-29T04:19:51;17.00;99.90
22145;DHT22;11238;48.730;11.566;2023-07-29T04:22:19;17.00;99.90
22145;DHT22;11238;48.730;11.566;2023-07-29T04:24:45;17.00;99.90
22145;DHT22;11238;48.730;11.566;2023-07-29T04:27:11;17.00;99.90
22145;DHT22;11238;48.730;11.566;2023-07-29T04:29:37;16.90;99.90
22145;DHT22;11238;48.730;11.566;2023-07-29T04:32:04;16.90;99.90
22145;DHT22;11238;48.730;11.566;2023-07-29T04:34:30;16.90;99.90
22145;DHT22;11238;48.730;11.566;2023-07-29T04:36:56;16.80;99.90
22145;DHT22;11238;48.730;11.566;2023-07-29T04:39:22;16.80;99.90
22145;DHT22;11238;48.730;11.566;2023-07-29T04:41:48;16.80;99.90
22145;DHT22;11238;48.730;11.566;2023-07-29T04:44:14;16.80;99.90
22145;DHT22;11238;48.730;11.566;2023-07-29T04:46:40;16.90;99.90
22145;DHT22;11238;48.730;11.566;2023-07-29T04:49:06;16.90;99.90
22145;DHT22;11238;48.730;11.566;2023-07-29T04:51:32;16.90;99.90
22145;DHT22;11238;48.730;11.566;2023-07-29T04:53:58;16.90;99.90
22145;DHT22;11238;48.730;11.566;2023-07-29T04:56:25;17.00;99.90
22145;DHT22;11238;48.730;11.566;2023-07-29T04:58:50;17.00;99.90
22145;DHT22;11238;48.730;11.566;2023-07-29T05:01:16;17.00;99.90
22145;DHT22;11238;48.730;11.566;2023-07-29T05:03:42;17.10;99.90
22145;DHT22;11238;48.730;11.566;2023-07-29T05:06:08;17.10;99.90
22145;DHT22;11238;48.730;11.566;2023-07-29T05:08:34;17.00;99.90
22145;DHT22;11238;48.730;11.566;2023-07-29T05:11:00;17.00;99.90
22145;DHT22;11238;48.730;11.566;2023-07-29T05:13:26;17.10;99.90
22145;DHT22;11238;48.730;11.566;2023-07-29T05:15:52;17.10;99.90
22145;DHT22;11238;48.730;11.566;2023-07-29T05:18:18;17.10;99.90
22145;DHT22;11238;48.730;11.566;2023-07-29T05:20:44;17.30;99.90
22145;DHT22;11238;48.730;11.566;2023-07-29T05:23:13;17.30;99.90
22145;DHT22;11238;48.730;11.566;2023-07-29T05:25:39;17.30;99.90
22145;DHT22;11238;48.730;11.566;2023-07-29T05:28:05;17.10;99.90
22145;DHT22;11238;48.730;11.566;2023-07-29T05:30:32;17.30;99.90
22145;DHT22;11238;48.730;11.566;2023-07-29T05:33:00;17.40;99.90
22145;DHT22;11238;48.730;11.566;2023-07-29T05:35:26;17.50;99.90
22145;DHT22;11238;48.730;11.566;2023-07-29T05:37:52;17.50;99.90
22145;DHT22;11238;48.730;11.566;2023-07-29T05:40:18;17.50;99.90
22145;DHT22;11238;48.730;11.566;2023-07-29T05:42:45;17.60;99.90
22145;DHT22;11238;48.730;11.566;2023-07-29T05:45:11;17.80;99.90
22145;DHT22;11238;48.730;11.566;2023-07-29T05:47:37;17.80;99.90
22145;DHT22;11238;48.730;11.566;2023-07-29T05:50:03;17.80;99.90
22145;DHT22;11238;48.730;11.566;2023-07-29T05:52:33;17.80;99.90
22145;DHT22;11238;48.730;11.566;2023-07-29T05:54:59;17.90;99.90
22145;DHT22;11238;48.730;11.566;2023-07-29T05:57:25;18.00;99.90
22145;DHT22;11238;48.730;11.566;2023-07-29T05:59:50;18.00;99.90
22145;DHT22;11238;48.730;11.566;2023-07-29T06:02:16;18.00;99.90
22145;DHT22;11238;48.730;11.566;2023-07-29T06:04:42;18.00;99.90
22145;DHT22;11238;48.730;11.566;2023-07-29T06:07:08;18.20;99.90
22145;DHT22;11238;48.730;11.566;2023-07-29T06:09:34;18.20;99.90
22145;DHT22;11238;48.730;11.566;2023-07-29T06:12:03;18.10;99.90
22145;DHT22;11238;48.730;11.566;2023-07-29T06:14:29;18.00;99.90
22145;DHT22;11238;48.730;11.566;2023-07-29T06:16:55;18.00;99.90
22145;DHT22;11238;48.730;11.566;2023-07-29T06:19:21;18.10;99.90
22145;DHT22;11238;48.730;11.566;2023-07-29T06:21:47;18.20;99.90
22145;DHT22;11238;48.730;11.566;2023-07-29T06:24:13;18.30;99.90
22145;DHT22;11238;48.730;11.566;2023-07-29T06:26:39;18.30;99.90
22145;DHT22;11238;48.730;11.566;2023-07-29T06:29:05;18.40;99.90
22145;DHT22;11238;48.730;11.566;2023-07-29T06:31:31;18.40;99.90
22145;DHT22;11238;48.730;11.566;2023-07-29T06:33:58;18.40;99.90
22145;DHT22;11238;48.730;11.566;2023-07-29T06:36:24;18.40;99.90
22145;DHT22;11238;48.730;11.566;2023-07-29T06:38:50;18.50;99.90
22145;DHT22;11238;48.730;11.566;2023-07-29T06:41:16;18.50;99.90
22145;DHT22;11238;48.730;11.566;2023-07-29T06:43:42;18.50;99.90
22145;DHT22;11238;48.730;11.566;2023-07-29T06:46:08;18.50;99.90
22145;DHT22;11238;48.730;11.566;2023-07-29T06:48:34;18.60;99.90
22145;DHT22;11238;48.730;11.566;2023-07-29T06:51:00;18.50;99.90
22145;DHT22;11238;48.730;11.566;2023-07-29T06:53:28;18.60;99.90
22145;DHT22;11238;48.730;11.566;2023-07-29T06:55:54;18.70;99.90
22145;DHT22;11238;48.730;11.566;2023-07-29T06:58:20;18.70;99.90
22145;DHT22;11238;48.730;11.566;2023-07-29T07:00:46;18.80;99.90
22145;DHT22;11238;48.730;11.566;2023-07-29T07:03:12;18.80;99.90
22145;DHT22;11238;48.730;11.566;2023-07-29T07:05:38;18.90;99.90
22145;DHT22;11238;48.730;11.566;2023-07-29T07:08:03;19.00;99.90
22145;DHT22;11238;48.730;11.566;2023-07-29T07:10:29;19.10;99.90
22145;DHT22;11238;48.730;11.566;2023-07-29T07:12:55;19.10;99.90
22145;DHT22;11238;48.730;11.566;2023-07-29T07:15:25;19.20;99.90
22145;DHT22;11238;48.730;11.566;2023-07-29T07:17:52;19.40;99.90
22145;DHT22;11238;48.730;11.566;2023-07-29T07:20:18;19.40;99.90
22145;DHT22;11238;48.730;11.566;2023-07-29T07:22:43;19.40;99.90
22145;DHT22;11238;48.730;11.566;2023-07-29T07:25:09;19.30;99.90
22145;DHT22;11238;48.730;11.566;2023-07-29T07:27:39;19.30;99.90
22145;DHT22;11238;48.730;11.566;2023-07-29T07:30:05;19.10;99.90
22145;DHT22;11238;48.730;11.566;2023-07-29T07:32:32;19.10;99.90
22145;DHT22;11238;48.730;11.566;2023-07-29T07:34:58;19.10;99.90
22145;DHT22;11238;48.730;11.566;2023-07-29T07:37:24;19.00;99.90
22145;DHT22;11238;48.730;11.566;2023-07-29T07:39:50;19.00;99.90
22145;DHT22;11238;48.730;11.566;2023-07-29T07:42:16;19.10;99.90
22145;DHT22;11238;48.730;11.566;2023-07-29T07:44:41;19.10;99.90
22145;DHT22;11238;48.730;11.566;2023-07-29T07:47:07;19.10;99.90
22145;DHT22;11238;48.730;11.566;2023-07-29T07:49:33;19.30;99.90
22145;DHT22;11238;48.730;11.566;2023-07-29T07:51:59;19.40;99.90
22145;DHT22;11238;48.730;11.566;2023-07-29T07:54:25;19.50;99.90
22145;DHT22;11238;48.730;11.566;2023-07-29T07:56:51;19.60;99.90
22145;DHT22;11238;48.730;11.566;2023-07-29T07:59:17;19.50;99.90
22145;DHT22;11238;48.730;11.566;2023-07-29T08:01:43;19.40;99.90
22145;DHT22;11238;48.730;11.566;2023-07-29T08:04:09;19.30;99.90
22145;DHT22;11238;48.730;11.566;2023-07-29T08:06:35;19.20;99.90
22145;DHT22;11238;48.730;11.566;2023-07-29T08:09:01;19.20;99.90
22145;DHT22;11238;48.730;11.566;2023-07-29T08:11:27;19.20;99.90
22145;DHT22;11238;48.730;11.566;2023-07-29T08:13:53;19.20;99.90
22145;DHT22;11238;48.730;11.566;2023-07-29T08:16:19;19.00;99.90
22145;DHT22;11238;48.730;11.566;2023-07-29T08:18:45;19.00;99.90
22145;DHT22;11238;48.730;11.566;2023-07-29T08:21:11;19.10;99.90
22145;DHT22;11238;48.730;11.566;2023-07-29T08:23:37;19.00;99.90
22145;DHT22;11238;48.730;11.566;2023-07-29T08:26:05;19.10;99.90
22145;DHT22;11238;48.730;11.566;2023-07-29T08:28:32;19.20;99.90
22145;DHT22;11238;48.730;11.566;2023-07-29T08:30:59;19.40;99.90
22145;DHT22;11238;48.730;11.566;2023-07-29T08:33:25;19.40;99.90
22145;DHT22;11238;48.730;11.566;2023-07-29T08:35:51;19.60;99.90
22145;DHT22;11238;48.730;11.566;2023-07-29T08:38:17;19.60;99.90
22145;DHT22;11238;48.730;11.566;2023-07-29T08:40:54;19.80;99.90
22145;DHT22;11238;48.730;11.566;2023-07-29T08:43:29;19.80;99.90
22145;DHT22;11238;48.730;11.566;2023-07-29T08:45:57;19.80;99.90
22145;DHT22;11238;48.730;11.566;2023-07-29T08:48:36;20.00;99.90
22145;DHT22;11238;48.730;11.566;2023-07-29T08:51:05;20.10;99.90
22145;DHT22;11238;48.730;11.566;2023-07-29T08:53:33;20.20;99.90
22145;DHT22;11238;48.730;11.566;2023-07-29T08:56:00;20.20;99.90
22145;DHT22;11238;48.730;11.566;2023-07-29T08:58:26;20.30;99.90
22145;DHT22;11238;48.730;11.566;2023-07-29T09:00:52;20.30;99.90
22145;DHT22;11238;48.730;11.566;2023-07-29T09:03:20;20.20;99.90
22145;DHT22;11238;48.730;11.566;2023-07-29T09:05:47;19.90;99.90
22145;DHT22;11238;48.730;11.566;2023-07-29T09:08:13;20.00;99.90
22145;DHT22;11238;48.730;11.566;2023-07-29T09:10:39;20.20;99.90
22145;DHT22;11238;48.730;11.566;2023-07-29T09:13:05;20.40;99.90
22145;DHT22;11238;48.730;11.566;2023-07-29T09:15:33;20.50;99.90
22145;DHT22;11238;48.730;11.566;2023-07-29T09:18:12;20.70;99.90
22145;DHT22;11238;48.730;11.566;2023-07-29T09:20:41;20.80;99.90
22145;DHT22;11238;48.730;11.566;2023-07-29T09:23:10;21.00;99.90
22145;DHT22;11238;48.730;11.566;2023-07-29T09:25:37;21.00;99.90
22145;DHT22;11238;48.730;11.566;2023-07-29T09:28:14;20.80;99.90
22145;DHT22;11238;48.730;11.566;2023-07-29T09:30:40;20.80;99.90
22145;DHT22;11238;48.730;11.566;2023-07-29T09:33:07;20.90;99.90
22145;DHT22;11238;48.730;11.566;2023-07-29T09:35:34;21.10;99.90
22145;DHT22;11238;48.730;11.566;2023-07-29T09:38:02;21.10;99.90
22145;DHT22;11238;48.730;11.566;2023-07-29T09:40:33;21.00;99.90
22145;DHT22;11238;48.730;11.566;2023-07-29T09:42:59;20.90;99.90
22145;DHT22;11238;48.730;11.566;2023-07-29T09:45:26;20.70;99.90
22145;DHT22;11238;48.730;11.566;2023-07-29T09:47:53;20.40;99.90
22145;DHT22;11238;48.730;11.566;2023-07-29T09:50:22;20.30;99.90
22145;DHT22;11238;48.730;11.566;2023-07-29T09:52:50;20.30;99.90
22145;DHT22;11238;48.730;11.566;2023-07-29T09:55:21;20.40;99.90
22145;DHT22;11238;48.730;11.566;2023-07-29T09:57:48;20.50;99.90
22145;DHT22;11238;48.730;11.566;2023-07-29T10:00:14;20.70;99.90
22145;DHT22;11238;48.730;11.566;2023-07-29T10:02:41;21.00;99.90
22145;DHT22;11238;48.730;11.566;2023-07-29T10:05:16;21.20;99.90
22145;DHT22;11238;48.730;11.566;2023-07-29T10:07:43;21.40;99.90
22145;DHT22;11238;48.730;11.566;2023-07-29T10:10:09;21.60;99.90
22145;DHT22;11238;48.730;11.566;2023-07-29T10:12:35;21.70;99.90
22145;DHT22;11238;48.730;11.566;2023-07-29T10:15:03;21.90;99.90
22145;DHT22;11238;48.730;11.566;2023-07-29T10:17:30;21.90;99.90
22145;DHT22;11238;48.730;11.566;2023-07-29T10:19:57;21.90;99.90
22145;DHT22;11238;48.730;11.566;2023-07-29T10:22:28;21.80;99.90
22145;DHT22;11238;48.730;11.566;2023-07-29T10:24:58;21.90;99.90
22145;DHT22;11238;48.730;11.566;2023-07-29T10:27:25;22.00;99.90
22145;DHT22;11238;48.730;11.566;2023-07-29T10:29:55;22.20;99.90
22145;DHT22;11238;48.730;11.566;2023-07-29T10:32:25;22.20;99.90
22145;DHT22;11238;48.730;11.566;2023-07-29T10:34:52;22.10;99.90
22145;DHT22;11238;48.730;11.566;2023-07-29T10:37:17;22.20;99.90
22145;DHT22;11238;48.730;11.566;2023-07-29T10:39:53;22.20;99.90
22145;DHT22;11238;48.730;11.566;2023-07-29T10:42:20;22.20;99.90
22145;DHT22;11238;48.730;11.566;2023-07-29T10:44:48;22.10;99.90
22145;DHT22;11238;48.730;11.566;2023-07-29T10:49:56;22.10;99.90
22145;DHT22;11238;48.730;11.566;2023-07-29T10:55:25;22.00;99.90
22145;DHT22;11238;48.730;11.566;2023-07-29T10:57:52;22.10;99.90
22145;DHT22;11238;48.730;11.566;2023-07-29T11:00:19;22.20;99.90
22145;DHT22;11238;48.730;11.566;2023-07-29T11:02:58;22.40;99.90
22145;DHT22;11238;48.730;11.566;2023-07-29T11:05:26;22.60;99.90
22145;DHT22;11238;48.730;11.566;2023-07-29T11:07:52;22.80;99.90
22145;DHT22;11238;48.730;11.566;2023-07-29T11:10:18;23.00;99.90
22145;DHT22;11238;48.730;11.566;2023-07-29T11:12:48;23.10;99.90
22145;DHT22;11238;48.730;11.566;2023-07-29T11:15:21;23.20;99.90
22145;DHT22;11238;48.730;11.566;2023-07-29T11:20:20;23.30;99.90
22145;DHT22;11238;48.730;11.566;2023-07-29T11:22:47;23.50;99.90
22145;DHT22;11238;48.730;11.566;2023-07-29T11:25:14;23.50;99.90
22145;DHT22;11238;48.730;11.566;2023-07-29T11:27:41;23.60;99.90
22145;DHT22;11238;48.730;11.566;2023-07-29T11:30:09;23.60;99.90
22145;DHT22;11238;48.730;11.566;2023-07-29T11:32:36;23.50;99.90
22145;DHT22;11238;48.730;11.566;2023-07-29T11:35:13;23.50;99.90
22145;DHT22;11238;48.730;11.566;2023-07-29T11:37:43;23.40;99.90
22145;DHT22;11238;48.730;11.566;2023-07-29T11:40:09;23.40;99.90
22145;DHT22;11238;48.730;11.566;2023-07-29T11:42:37;23.30;99.90
22145;DHT22;11238;48.730;11.566;2023-07-29T11:45:04;23.20;99.90
22145;DHT22;11238;48.730;11.566;2023-07-29T11:47:34;23.20;99.90
22145;DHT22;11238;48.730;11.566;2023-07-29T11:50:04;23.20;99.90
22145;DHT22;11238;48.730;11.566;2023-07-29T11:52:35;23.30;99.90
22145;DHT22;11238;48.730;11.566;2023-07-29T11:55:01;23.50;99.90
22145;DHT22;11238;48.730;11.566;2023-07-29T11:57:31;23.70;99.90
22145;DHT22;11238;48.730;11.566;2023-07-29T11:59:59;23.80;99.90
22145;DHT22;11238;48.730;11.566;2023-07-29T12:02:25;23.90;99.90
22145;DHT22;11238;48.730;11.566;2023-07-29T12:04:52;24.20;99.90
22145;DHT22;11238;48.730;11.566;2023-07-29T12:07:19;24.40;99.90
22145;DHT22;11238;48.730;11.566;2023-07-29T12:09:45;24.40;99.90
22145;DHT22;11238;48.730;11.566;2023-07-29T12:12:11;24.20;99.90
22145;DHT22;11238;48.730;11.566;2023-07-29T12:14:37;24.20;99.90
22145;DHT22;11238;48.730;11.566;2023-07-29T12:17:05;24.20;99.90
22145;DHT22;11238;48.730;11.566;2023-07-29T12:19:38;23.90;99.90
22145;DHT22;11238;48.730;11.566;2023-07-29T12:22:09;23.90;99.90
22145;DHT22;11238;48.730;11.566;2023-07-29T12:24:37;23.80;99.90
22145;DHT22;11238;48.730;11.566;2023-07-29T12:27:04;23.60;99.90
22145;DHT22;11238;48.730;11.566;2023-07-29T12:29:30;23.50;99.90
22145;DHT22;11238;48.730;11.566;2023-07-29T12:31:58;23.40;99.90
22145;DHT22;11238;48.730;11.566;2023-07-29T12:34:26;23.30;99.90
22145;DHT22;11238;48.730;11.566;2023-07-29T12:36:54;23.30;99.90
22145;DHT22;11238;48.730;11.566;2023-07-29T12:39:27;23.20;99.90
22145;DHT22;11238;48.730;11.566;2023-07-29T12:41:55;23.10;99.90
22145;DHT22;11238;48.730;11.566;2023-07-29T12:44:26;23.00;99.90
22145;DHT22;11238;48.730;11.566;2023-07-29T12:46:53;22.80;99.90
22145;DHT22;11238;48.730;11.566;2023-07-29T12:49:18;22.80;99.90
22145;DHT22;11238;48.730;11.566;2023-07-29T12:51:45;22.70;99.90
22145;DHT22;11238;48.730;11.566;2023-07-29T12:54:12;22.70;99.90
22145;DHT22;11238;48.730;11.566;2023-07-29T12:56:37;22.80;99.90
22145;DHT22;11238;48.730;11.566;2023-07-29T12:59:04;22.90;99.90
22145;DHT22;11238;48.730;11.566;2023-07-29T13:01:30;22.80;99.90
22145;DHT22;11238;48.730;11.566;2023-07-29T13:03:56;23.00;99.90
22145;DHT22;11238;48.730;11.566;2023-07-29T13:06:22;23.00;99.90
22145;DHT22;11238;48.730;11.566;2023-07-29T13:08:48;22.90;99.90
22145;DHT22;11238;48.730;11.566;2023-07-29T13:11:17;22.60;99.90
22145;DHT22;11238;48.730;11.566;2023-07-29T13:13:43;22.50;99.90
22145;DHT22;11238;48.730;11.566;2023-07-29T13:16:11;22.20;99.90
22145;DHT22;11238;48.730;11.566;2023-07-29T13:18:38;22.10;99.90
22145;DHT22;11238;48.730;11.566;2023-07-29T13:21:04;22.00;99.90
22145;DHT22;11238;48.730;11.566;2023-07-29T13:23:30;21.90;99.90
22145;DHT22;11238;48.730;11.566;2023-07-29T13:25:56;21.80;99.90
22145;DHT22;11238;48.730;11.566;2023-07-29T13:28:22;21.70;99.90
22145;DHT22;11238;48.730;11.566;2023-07-29T13:30:48;21.70;99.90
22145;DHT22;11238;48.730;11.566;2023-07-29T13:33:14;21.70;99.90
22145;DHT22;11238;48.730;11.566;2023-07-29T13:35:41;21.80;99.90
22145;DHT22;11238;48.730;11.566;2023-07-29T13:38:06;21.80;99.90
22145;DHT22;11238;48.730;11.566;2023-07-29T13:40:32;21.90;99.90
22145;DHT22;11238;48.730;11.566;2023-07-29T13:42:58;22.00;99.90
22145;DHT22;11238;48.730;11.566;2023-07-29T13:45:24;21.90;99.90
22145;DHT22;11238;48.730;11.566;2023-07-29T13:47:50;22.00;99.90
22145;DHT22;11238;48.730;11.566;2023-07-29T13:50:19;22.00;99.90
22145;DHT22;11238;48.730;11.566;2023-07-29T13:52:45;22.00;99.90
22145;DHT22;11238;48.730;11.566;2023-07-29T13:55:11;22.10;99.90
22145;DHT22;11238;48.730;11.566;2023-07-29T13:57:38;22.10;99.90
22145;DHT22;11238;48.730;11.566;2023-07-29T14:00:05;22.20;99.90
22145;DHT22;11238;48.730;11.566;2023-07-29T14:02:37;22.20;99.90
22145;DHT22;11238;48.730;11.566;2023-07-29T14:05:02;22.20;99.90
22145;DHT22;11238;48.730;11.566;2023-07-29T14:07:28;22.40;99.90
22145;DHT22;11238;48.730;11.566;2023-07-29T14:09:54;22.60;99.90
22145;DHT22;11238;48.730;11.566;2023-07-29T14:12:20;22.90;99.90
22145;DHT22;11238;48.730;11.566;2023-07-29T14:14:46;23.10;99.90
22145;DHT22;11238;48.730;11.566;2023-07-29T14:17:11;23.10;99.90
22145;DHT22;11238;48.730;11.566;2023-07-29T14:19:38;23.00;99.90
22145;DHT22;11238;48.730;11.566;2023-07-29T14:22:04;23.00;99.90
22145;DHT22;11238;48.730;11.566;2023-07-29T14:24:30;23.00;99.90
22145;DHT22;11238;48.730;11.566;2023-07-29T14:26:56;22.90;99.90
22145;DHT22;11238;48.730;11.566;2023-07-29T14:29:22;22.90;99.90
22145;DHT22;11238;48.730;11.566;2023-07-29T14:31:48;22.80;99.90
22145;DHT22;11238;48.730;11.566;2023-07-29T14:34:14;22.90;99.90
22145;DHT22;11238;48.730;11.566;2023-07-29T14:36:40;23.00;99.90
22145;DHT22;11238;48.730;11.566;2023-07-29T14:39:06;23.10;99.90
22145;DHT22;11238;48.730;11.566;2023-07-29T14:41:31;23.10;99.90
22145;DHT22;11238;48.730;11.566;2023-07-29T14:43:57;23.10;99.90
22145;DHT22;11238;48.730;11.566;2023-07-29T14:46:23;23.30;99.90
22145;DHT22;11238;48.730;11.566;2023-07-29T14:48:50;23.40;99.90
22145;DHT22;11238;48.730;11.566;2023-07-29T14:51:16;23.50;99.90
22145;DHT22;11238;48.730;11.566;2023-07-29T14:53:42;23.60;99.90
22145;DHT22;11238;48.730;11.566;2023-07-29T14:56:08;23.60;99.90
22145;DHT22;11238;48.730;11.566;2023-07-29T14:58:34;23.60;99.90
22145;DHT22;11238;48.730;11.566;2023-07-29T15:01:00;23.50;99.90
22145;DHT22;11238;48.730;11.566;2023-07-29T15:03:25;23.60;99.90
22145;DHT22;11238;48.730;11.566;2023-07-29T15:05:51;23.60;99.90
22145;DHT22;11238;48.730;11.566;2023-07-29T15:08:17;23.60;99.90
22145;DHT22;11238;48.730;11.566;2023-07-29T15:10:47;23.60;99.90
22145;DHT22;11238;48.730;11.566;2023-07-29T15:13:13;23.80;99.90
22145;DHT22;11238;48.730;11.566;2023-07-29T15:15:43;23.90;99.90
22145;DHT22;11238;48.730;11.566;2023-07-29T15:18:09;24.00;99.90
22145;DHT22;11238;48.730;11.566;2023-07-29T15:20:35;24.20;99.90
22145;DHT22;11238;48.730;11.566;2023-07-29T15:23:01;24.30;99.90
22145;DHT22;11238;48.730;11.566;2023-07-29T15:25:27;24.40;99.90